Ansonia, Pennsylvania
Current Conditions -  °F | °C
As of 9:55 AM on Sunday 21 Dec 2014 (Local Time) from KN38 Reporting Station
Light Rain Light Rain  
Wind Chill: 18°   Ceiling: 1100
Heat Index: 25°   Visibility: 9mi
Dew Point: 21°   Wind: 6mph
Humidity: 86%   Direction: 360°N
Pressure: 30.27"   Gusts: NA
Location:  41.7308°N, 77.349°W
Report Text: KN38 211455Z AUTO 36005KT 9SM -RA OVC011 M04/M06 A3027 RMK AO2
Loading
Personal Weather Stations






























Interactive Weather Map New forecast layout! Learn more

10-Day Weather Forecast

Advertisements
Track Severe Weather on mobile